createdAt,value
2019-04-23T00:00:17.084Z,65.50
2019-04-23T00:02:45.850Z,65.50
2019-04-23T00:05:21.528Z,65.60
2019-04-23T00:07:56.195Z,65.40
2019-04-23T00:10:13.483Z,65.20
2019-04-23T00:12:44.209Z,65.30
2019-04-23T00:15:08.793Z,65.30
2019-04-23T00:17:38.982Z,65.40
2019-04-23T00:20:04.542Z,66.90
2019-04-23T00:22:29.079Z,65.50
2019-04-23T00:27:29.122Z,65.30
2019-04-23T00:29:57.624Z,65.30
2019-04-23T00:32:28.740Z,65.40
2019-04-23T00:34:57.703Z,65.20
2019-04-23T00:37:25.701Z,65.30
2019-04-23T00:39:48.139Z,65.80
2019-04-23T00:42:22.074Z,65.80
2019-04-23T00:47:23.541Z,65.90
2019-04-23T00:49:44.893Z,65.60
2019-04-23T00:52:16.411Z,66.10
2019-04-23T00:54:46.770Z,66.30
2019-04-23T00:57:12.136Z,66.80
2019-04-23T00:59:39.482Z,66.90
2019-04-23T01:02:04.154Z,66.40
2019-04-23T01:04:32.741Z,66.90
2019-04-23T01:07:02.550Z,69.00
2019-04-23T01:09:25.852Z,67.00
2019-04-23T01:11:49.840Z,70.00
2019-04-23T01:14:22.960Z,73.70
2019-04-23T01:16:45.857Z,75.20
2019-04-23T01:19:26.645Z,75.80
2019-04-23T01:21:30.596Z,77.60
2019-04-23T01:24:04.437Z,77.60
2019-04-23T01:27:00.589Z,79.60
2019-04-23T01:29:19.967Z,80.50
2019-04-23T01:34:19.759Z,82.30
2019-04-23T01:36:40.205Z,82.70
2019-04-23T01:39:14.501Z,83.50
2019-04-23T01:41:45.410Z,84.90
2019-04-23T01:44:20.124Z,85.80
2019-04-23T01:46:42.745Z,87.00
2019-04-23T01:49:07.807Z,86.30
2019-04-23T01:51:42.911Z,86.50
2019-04-23T01:54:02.848Z,85.70
2019-04-23T01:56:30.883Z,85.10
2019-04-23T02:01:47.982Z,87.00
2019-04-23T02:06:28.033Z,88.90
2019-04-23T02:08:53.599Z,89.40
2019-04-23T02:11:19.080Z,90.10
2019-04-23T02:13:55.675Z,90.50
2019-04-23T02:16:19.304Z,91.10
2019-04-23T02:18:47.849Z,91.00
2019-04-23T02:21:12.085Z,91.50
2019-04-23T02:23:44.303Z,92.40
2019-04-23T02:26:11.206Z,92.40
2019-04-23T02:28:53.259Z,93.30
2019-04-23T02:38:44.309Z,95.20
2019-04-23T02:43:36.137Z,96.20
2019-04-23T02:48:40.594Z,97.40
2019-04-23T02:53:42.287Z,98.40
2019-04-23T02:55:50.501Z,99.10
2019-04-23T02:58:39.000Z,99.40
2019-04-23T03:01:25.717Z,99.90
2019-04-23T03:03:14.247Z,99.90
2019-04-23T03:05:45.970Z,99.90
2019-04-23T03:08:06.210Z,99.90
2019-04-23T03:10:41.867Z,99.90
2019-04-23T03:18:21.000Z,99.90
2019-04-23T03:26:28.707Z,99.90
2019-04-23T03:28:57.779Z,99.90
2019-04-23T03:33:04.309Z,99.90
2019-04-23T03:38:50.641Z,99.90
2019-04-23T03:43:37.454Z,99.90
2019-04-23T03:50:43.470Z,99.90
2019-04-23T03:55:56.218Z,99.90
2019-04-23T03:58:18.694Z,99.90
2019-04-23T04:00:51.450Z,99.90
2019-04-23T04:03:26.998Z,99.90
2019-04-23T04:05:45.516Z,99.90
2019-04-23T04:08:13.904Z,99.90
2019-04-23T04:10:46.478Z,99.90
2019-04-23T04:13:22.330Z,99.90
2019-04-23T04:18:11.025Z,99.90
2019-04-23T04:20:35.912Z,99.90
2019-04-23T04:25:30.548Z,99.90
2019-04-23T04:30:22.338Z,99.90
2019-04-23T04:32:56.617Z,99.90
2019-04-23T04:42:37.075Z,99.90
2019-04-23T04:52:41.242Z,99.90
2019-04-23T04:54:51.906Z,99.90
2019-04-23T04:57:29.768Z,99.90
2019-04-23T05:00:06.758Z,99.90
2019-04-23T05:02:39.639Z,99.90
2019-04-23T05:05:09.150Z,99.90
2019-04-23T05:09:48.383Z,99.90
2019-04-23T05:12:14.467Z,99.90
2019-04-23T05:17:11.078Z,99.90
2019-04-23T05:22:06.993Z,99.90
2019-04-23T05:27:01.081Z,99.90
2019-04-23T05:29:33.310Z,99.90
2019-04-23T05:31:54.897Z,99.90
2019-04-23T05:34:24.377Z,99.90
2019-04-23T05:36:53.714Z,99.90
2019-04-23T05:41:45.560Z,99.90
2019-04-23T05:44:23.846Z,99.90
2019-04-23T05:46:52.141Z,99.90
2019-04-23T05:51:50.975Z,99.90
2019-04-23T05:54:12.972Z,99.90
2019-04-23T05:56:38.229Z,99.90
2019-04-23T05:59:11.637Z,99.90
2019-04-23T06:04:11.720Z,99.90
2019-04-23T06:06:54.273Z,99.90
2019-04-23T06:09:03.454Z,99.90
2019-04-23T06:11:37.067Z,99.90
2019-04-23T06:14:05.318Z,99.90
2019-04-23T06:16:31.553Z,99.90
2019-04-23T06:18:59.391Z,99.90
2019-04-23T06:21:30.911Z,99.90
2019-04-23T06:26:24.429Z,99.90
2019-04-23T06:28:44.045Z,99.90
2019-04-23T06:31:06.353Z,99.90
2019-04-23T06:36:05.404Z,99.90
2019-04-23T06:41:05.839Z,99.90
2019-04-23T06:43:34.967Z,99.90
2019-04-23T06:45:49.808Z,99.90
2019-04-23T06:51:00.771Z,99.90
2019-04-23T06:53:12.514Z,99.90
2019-04-23T06:55:49.246Z,99.90
2019-04-23T06:58:24.012Z,99.90
2019-04-23T07:00:41.917Z,99.90
2019-04-23T07:03:14.965Z,99.90
2019-04-23T07:05:57.372Z,99.90
2019-04-23T07:08:13.609Z,99.90
2019-04-23T07:10:42.196Z,99.90
2019-04-23T07:13:10.946Z,99.90
2019-04-23T07:18:03.987Z,99.90
2019-04-23T07:20:33.495Z,99.90
2019-04-23T07:23:04.866Z,99.90
2019-04-23T07:25:29.675Z,99.90
2019-04-23T07:27:59.084Z,99.90
2019-04-23T07:30:20.655Z,99.90
2019-04-23T07:32:52.970Z,99.90
2019-04-23T07:35:15.760Z,99.90
2019-04-23T07:37:57.114Z,99.90
2019-04-23T07:43:04.321Z,99.90
2019-04-23T07:45:35.272Z,99.90
2019-04-23T07:48:10.792Z,99.90
2019-04-23T07:50:49.083Z,99.90
2019-04-23T07:55:41.405Z,99.90
2019-04-23T07:58:10.569Z,99.90
2019-04-23T08:00:45.613Z,99.90
2019-04-23T08:03:08.540Z,99.90
2019-04-23T08:05:32.002Z,99.90
2019-04-23T08:07:57.437Z,99.90
2019-04-23T08:12:56.188Z,99.90
2019-04-23T08:15:26.853Z,99.90
2019-04-23T08:17:42.663Z,99.90
2019-04-23T08:20:11.206Z,99.90
2019-04-23T08:22:40.752Z,99.90
2019-04-23T08:25:12.445Z,99.90
2019-04-23T08:27:56.024Z,99.90
2019-04-23T08:30:06.423Z,99.90
2019-04-23T08:32:52.147Z,99.90
2019-04-23T08:37:51.205Z,99.90
2019-04-23T08:42:38.002Z,99.90
2019-04-23T08:45:09.219Z,99.90
2019-04-23T08:47:32.042Z,99.90
2019-04-23T08:49:56.704Z,96.90
2019-04-23T09:00:05.612Z,97.60
2019-04-23T09:02:35.699Z,97.50
2019-04-23T09:07:23.902Z,96.70
2019-04-23T09:09:53.678Z,95.70
2019-04-23T09:14:44.469Z,95.40
2019-04-23T09:17:24.168Z,94.20
2019-04-23T09:19:54.455Z,94.30
2019-04-23T09:22:14.449Z,94.30
2019-04-23T09:24:40.269Z,94.20
2019-04-23T09:29:39.119Z,93.70
2019-04-23T09:34:34.583Z,93.50
2019-04-23T09:37:04.776Z,93.00
2019-04-23T09:42:16.070Z,96.40
2019-04-23T09:47:38.541Z,95.30
2019-04-23T09:50:04.699Z,95.30
2019-04-23T09:52:30.911Z,96.40
2019-04-23T09:57:15.997Z,96.00
2019-04-23T09:59:51.090Z,95.00
2019-04-23T10:02:13.493Z,94.40
2019-04-23T10:04:36.556Z,94.50
2019-04-23T10:07:01.659Z,94.50
2019-04-23T10:09:18.321Z,93.60
2019-04-23T10:11:45.138Z,93.80
2019-04-23T10:14:12.410Z,93.10
2019-04-23T10:16:43.372Z,94.00
2019-04-23T10:19:12.141Z,93.30
2019-04-23T10:21:39.429Z,92.60
2019-04-23T10:24:09.449Z,92.00
2019-04-23T10:26:41.861Z,92.80
2019-04-23T10:32:03.878Z,91.70
2019-04-23T10:34:42.319Z,91.50
2019-04-23T10:37:02.805Z,90.50
2019-04-23T10:39:35.133Z,90.20
2019-04-23T10:42:01.211Z,90.40
2019-04-23T10:44:52.051Z,90.40
2019-04-23T10:47:58.947Z,89.20
2019-04-23T10:53:26.559Z,81.20
2019-04-23T10:55:56.332Z,81.30
2019-04-23T10:58:18.052Z,80.70
2019-04-23T11:00:45.654Z,79.10
2019-04-23T11:03:32.883Z,79.00
2019-04-23T11:08:02.310Z,83.50
2019-04-23T11:10:33.246Z,90.30
2019-04-23T11:13:24.005Z,90.90
2019-04-23T11:15:58.917Z,91.90
2019-04-23T11:18:02.830Z,91.50
2019-04-23T11:20:45.516Z,90.90
2019-04-23T11:22:59.113Z,91.90
2019-04-23T11:25:35.990Z,92.20
2019-04-23T11:28:05.572Z,92.10
2019-04-23T11:30:41.095Z,92.50
2019-04-23T11:33:15.918Z,92.70
2019-04-23T11:40:25.409Z,94.10
2019-04-23T11:43:09.064Z,93.60
2019-04-23T11:45:50.796Z,93.20
2019-04-23T11:48:24.421Z,92.40
2019-04-23T11:50:18.886Z,93.00
2019-04-23T11:55:27.087Z,93.50
2019-04-23T11:57:47.663Z,92.90
2019-04-23T12:00:05.525Z,92.60
2019-04-23T12:02:40.272Z,92.80
2019-04-23T12:05:11.880Z,92.60
2019-04-23T12:07:32.841Z,92.70
2019-04-23T12:10:04.796Z,93.00
2019-04-23T12:12:33.361Z,93.00
2019-04-23T12:14:56.230Z,93.00
2019-04-23T12:18:10.888Z,92.70
2019-04-23T12:20:07.922Z,92.70
2019-04-23T12:22:30.389Z,92.60
2019-04-23T12:27:23.279Z,91.00
2019-04-23T12:32:35.490Z,91.80
2019-04-23T12:34:58.471Z,92.30
2019-04-23T12:37:26.713Z,92.10
2019-04-23T12:39:41.748Z,92.30
2019-04-23T12:42:38.357Z,92.80
2019-04-23T12:44:51.606Z,92.80
2019-04-23T12:47:14.277Z,93.10
2019-04-23T12:49:59.093Z,91.80
2019-04-23T12:52:05.099Z,91.50
2019-04-23T12:54:43.239Z,91.20
2019-04-23T12:57:08.576Z,91.60
2019-04-23T12:59:30.945Z,90.20
2019-04-23T13:01:57.611Z,90.10
2019-04-23T13:04:26.136Z,90.30
2019-04-23T13:06:50.923Z,90.50
2019-04-23T13:12:01.507Z,90.10
2019-04-23T13:14:29.937Z,89.40
2019-04-23T13:17:00.645Z,89.90
2019-04-23T13:19:25.663Z,89.50
2019-04-23T13:27:15.390Z,81.90
2019-04-23T13:32:02.537Z,80.70
2019-04-23T13:34:41.388Z,79.00
2019-04-23T13:36:59.823Z,75.30
2019-04-23T13:39:24.512Z,77.10
2019-04-23T13:41:53.929Z,76.30
2019-04-23T13:44:26.369Z,73.80
2019-04-23T13:46:57.549Z,73.20
2019-04-23T13:49:18.995Z,71.20
2019-04-23T13:52:19.100Z,73.10
2019-04-23T13:54:42.042Z,74.70
2019-04-23T13:57:13.058Z,74.50
2019-04-23T14:01:54.343Z,72.80
2019-04-23T14:04:14.133Z,73.40
2019-04-23T14:06:43.061Z,73.50
2019-04-23T14:09:22.564Z,72.60
2019-04-23T14:11:51.479Z,72.80
2019-04-23T14:14:21.953Z,72.30
2019-04-23T14:16:39.494Z,72.70
2019-04-23T14:21:33.429Z,70.70
2019-04-23T14:29:15.019Z,73.00
2019-04-23T14:31:25.724Z,70.70
2019-04-23T14:36:32.684Z,70.50
2019-04-23T14:38:52.801Z,70.00
2019-04-23T14:41:24.936Z,68.60
2019-04-23T14:48:50.014Z,60.80
2019-04-23T14:53:40.911Z,61.20
2019-04-23T15:01:16.012Z,62.20
2019-04-23T15:08:39.808Z,63.60
2019-04-23T15:11:16.407Z,64.30
2019-04-23T15:13:27.534Z,64.00
2019-04-23T15:16:03.000Z,62.20
2019-04-23T15:18:37.926Z,60.80
2019-04-23T15:21:10.193Z,58.40
2019-04-23T15:23:41.219Z,58.50
2019-04-23T15:26:38.135Z,57.40
2019-04-23T15:28:10.170Z,55.90
2019-04-23T15:30:51.322Z,56.20
2019-04-23T15:36:06.641Z,55.50
2019-04-23T15:41:00.187Z,53.50
2019-04-23T15:45:38.411Z,54.10
2019-04-23T15:48:03.318Z,53.10
2019-04-23T15:52:56.581Z,52.60
2019-04-23T15:55:22.153Z,52.40
2019-04-23T15:58:05.449Z,52.70
2019-04-23T16:00:20.402Z,53.00
2019-04-23T16:02:20.219Z,53.10
2019-04-23T16:04:48.972Z,54.50
2019-04-23T16:07:31.409Z,55.60
2019-04-23T16:10:20.061Z,54.70
2019-04-23T16:12:50.761Z,55.80
2019-04-23T16:15:08.210Z,56.10
2019-04-23T16:17:37.167Z,55.60
2019-04-23T16:22:32.078Z,59.40
2019-04-23T16:27:20.177Z,61.60
2019-04-23T16:30:12.887Z,63.10
2019-04-23T16:32:37.554Z,64.20
2019-04-23T16:35:03.262Z,64.20
2019-04-23T16:37:26.494Z,65.20
2019-04-23T16:40:04.188Z,65.50
2019-04-23T16:42:27.022Z,66.30
2019-04-23T16:44:56.073Z,67.10
2019-04-23T16:47:21.773Z,64.90
2019-04-23T16:49:51.163Z,65.70
2019-04-23T16:52:17.794Z,67.20
2019-04-23T16:54:50.967Z,68.10
2019-04-23T16:57:22.775Z,67.30
2019-04-23T16:59:35.275Z,69.20
2019-04-23T17:02:07.805Z,69.20
2019-04-23T17:04:34.564Z,67.10
2019-04-23T17:06:57.555Z,66.90
2019-04-23T17:09:24.614Z,67.30
2019-04-23T17:11:59.349Z,67.90
2019-04-23T17:14:19.171Z,69.60
2019-04-23T17:16:42.638Z,69.40
2019-04-23T17:19:24.578Z,69.30
2019-04-23T17:21:57.276Z,69.70
2019-04-23T17:29:20.386Z,72.70
2019-04-23T17:34:21.706Z,74.40
2019-04-23T17:37:00.825Z,80.50
2019-04-23T17:41:48.488Z,82.80
2019-04-23T17:44:19.815Z,83.20
2019-04-23T17:46:37.651Z,85.30
2019-04-23T17:49:09.760Z,85.10
2019-04-23T17:51:26.057Z,86.80
2019-04-23T17:54:04.761Z,88.80
2019-04-23T17:56:41.558Z,88.50
2019-04-23T17:58:58.935Z,89.50
2019-04-23T18:03:57.379Z,90.50
2019-04-23T18:06:30.050Z,90.90
2019-04-23T18:08:50.953Z,91.50
2019-04-23T18:11:16.295Z,91.90
2019-04-23T18:13:46.359Z,92.40
2019-04-23T18:18:45.072Z,92.90
2019-04-23T18:21:23.800Z,93.30
2019-04-23T18:26:46.066Z,94.00
2019-04-23T18:29:18.896Z,94.70
2019-04-23T18:34:41.898Z,95.30
2019-04-23T18:37:01.565Z,96.50
2019-04-23T18:39:32.903Z,96.40
2019-04-23T18:42:03.871Z,97.20
2019-04-23T18:44:29.691Z,97.90
2019-04-23T18:46:49.017Z,98.80
2019-04-23T18:49:19.888Z,99.70
2019-04-23T18:51:53.340Z,99.90
2019-04-23T18:54:14.392Z,99.90
2019-04-23T18:56:58.391Z,99.90
2019-04-23T19:02:05.153Z,99.90
2019-04-23T19:04:33.087Z,99.90
2019-04-23T19:06:41.206Z,99.90
2019-04-23T19:09:23.836Z,99.90
2019-04-23T19:12:05.147Z,99.90
2019-04-23T19:14:35.504Z,99.90
2019-04-23T19:17:16.295Z,99.90
2019-04-23T19:19:20.398Z,99.90
2019-04-23T19:24:18.437Z,99.90
2019-04-23T19:27:03.572Z,99.90
2019-04-23T19:29:15.980Z,99.90
2019-04-23T19:31:53.280Z,99.90
2019-04-23T19:39:11.045Z,99.90
2019-04-23T19:41:39.421Z,99.90
2019-04-23T19:44:01.412Z,99.90
2019-04-23T19:46:43.727Z,99.90
2019-04-23T19:49:05.341Z,99.90
2019-04-23T19:51:32.049Z,99.90
2019-04-23T19:54:01.748Z,99.90
2019-04-23T20:03:50.122Z,99.90
2019-04-23T20:08:53.241Z,99.90
2019-04-23T20:11:08.024Z,99.90
2019-04-23T20:13:45.712Z,99.90
2019-04-23T20:16:12.245Z,99.90
2019-04-23T20:18:42.996Z,99.90
2019-04-23T20:23:47.846Z,99.90
2019-04-23T20:34:02.946Z,99.90
2019-04-23T20:36:23.783Z,99.90
2019-04-23T20:38:53.199Z,99.90
2019-04-23T20:41:21.486Z,99.90
2019-04-23T20:43:49.182Z,99.90
2019-04-23T20:46:14.542Z,99.90
2019-04-23T20:51:06.066Z,99.90
2019-04-23T20:53:43.347Z,99.90
2019-04-23T20:58:48.158Z,99.90
2019-04-23T21:01:22.276Z,99.90
2019-04-23T21:03:49.088Z,99.90
2019-04-23T21:06:08.723Z,99.90
2019-04-23T21:10:58.307Z,99.90
2019-04-23T21:13:50.606Z,99.90
2019-04-23T21:16:05.028Z,99.90
2019-04-23T21:18:32.231Z,99.90
2019-04-23T21:20:56.077Z,99.90
2019-04-23T21:23:24.338Z,99.90
2019-04-23T21:25:49.115Z,99.90
2019-04-23T21:31:00.629Z,99.90
2019-04-23T21:33:30.089Z,99.90
2019-04-23T21:39:07.583Z,99.90
2019-04-23T21:44:10.525Z,99.90
2019-04-23T21:46:28.030Z,99.90
2019-04-23T21:56:15.310Z,99.90
2019-04-23T21:58:53.363Z,99.90
2019-04-23T22:01:24.464Z,99.90
2019-04-23T22:04:06.407Z,99.90
2019-04-23T22:06:12.343Z,99.90
2019-04-23T22:08:45.909Z,99.90
2019-04-23T22:11:16.913Z,99.90
2019-04-23T22:13:46.206Z,99.90
2019-04-23T22:16:07.290Z,99.90
2019-04-23T22:18:34.363Z,99.90
2019-04-23T22:21:14.405Z,99.90
2019-04-23T22:23:36.752Z,99.90
2019-04-23T22:26:11.175Z,99.90
2019-04-23T22:28:27.420Z,99.90
2019-04-23T22:30:54.955Z,99.90
2019-04-23T22:33:19.547Z,99.90
2019-04-23T22:35:55.652Z,99.90
2019-04-23T22:38:13.369Z,99.90
2019-04-23T22:40:41.594Z,99.90
2019-04-23T22:43:14.990Z,99.90
2019-04-23T22:45:37.749Z,99.90
2019-04-23T22:48:04.512Z,99.90
2019-04-23T22:53:00.397Z,99.90
2019-04-23T22:55:32.791Z,99.90
2019-04-23T22:58:08.155Z,99.90
2019-04-23T23:00:18.607Z,99.90
2019-04-23T23:02:58.022Z,99.90
2019-04-23T23:05:35.862Z,99.90
2019-04-23T23:07:56.473Z,99.90
2019-04-23T23:10:20.918Z,99.90
2019-04-23T23:15:17.826Z,99.90
2019-04-23T23:17:52.624Z,99.90
2019-04-23T23:22:51.353Z,99.90
2019-04-23T23:25:13.372Z,99.90
2019-04-23T23:27:40.036Z,99.90
2019-04-23T23:32:31.787Z,99.90
2019-04-23T23:37:24.323Z,99.90
2019-04-23T23:39:59.975Z,99.90
2019-04-23T23:42:16.486Z,99.90
2019-04-23T23:45:10.276Z,99.90
2019-04-23T23:47:14.851Z,99.90
2019-04-23T23:49:48.415Z,99.90
2019-04-23T23:52:16.166Z,99.90
2019-04-23T23:54:43.853Z,99.90
2019-04-23T23:57:13.704Z,99.90
2019-04-23T23:59:49.063Z,99.90
